sensor_id;sensor_type;location;lat;lon;timestamp;P1;durP1;ratioP1;P2;durP2;ratioP2
10847;SDS011;5477;48.806;9.154;2023-06-14T00:02:08;5.93;;;4.10;;
10847;SDS011;5477;48.806;9.154;2023-06-14T00:04:37;4.83;;;4.10;;
10847;SDS011;5477;48.806;9.154;2023-06-14T00:07:09;5.13;;;3.70;;
10847;SDS011;5477;48.806;9.154;2023-06-14T00:09:40;4.63;;;3.80;;
10847;SDS011;5477;48.806;9.154;2023-06-14T00:12:08;3.77;;;3.37;;
10847;SDS011;5477;48.806;9.154;2023-06-14T00:14:36;7.03;;;3.50;;
10847;SDS011;5477;48.806;9.154;2023-06-14T00:17:05;3.87;;;3.37;;
10847;SDS011;5477;48.806;9.154;2023-06-14T00:19:33;5.30;;;3.73;;
10847;SDS011;5477;48.806;9.154;2023-06-14T00:22:03;5.43;;;3.67;;
10847;SDS011;5477;48.806;9.154;2023-06-14T00:24:32;7.37;;;3.70;;
10847;SDS011;5477;48.806;9.154;2023-06-14T00:27:00;5.87;;;4.10;;
10847;SDS011;5477;48.806;9.154;2023-06-14T00:29:29;4.43;;;4.03;;
10847;SDS011;5477;48.806;9.154;2023-06-14T00:31:56;6.03;;;3.73;;
10847;SDS011;5477;48.806;9.154;2023-06-14T00:34:25;4.50;;;3.60;;
10847;SDS011;5477;48.806;9.154;2023-06-14T00:36:53;8.77;;;4.00;;
10847;SDS011;5477;48.806;9.154;2023-06-14T00:39:22;5.50;;;3.73;;
10847;SDS011;5477;48.806;9.154;2023-06-14T00:41:51;4.73;;;4.03;;
10847;SDS011;5477;48.806;9.154;2023-06-14T00:44:19;4.47;;;3.43;;
10847;SDS011;5477;48.806;9.154;2023-06-14T00:46:47;4.83;;;3.40;;
10847;SDS011;5477;48.806;9.154;2023-06-14T00:49:16;4.97;;;3.60;;
10847;SDS011;5477;48.806;9.154;2023-06-14T00:51:44;4.63;;;3.77;;
10847;SDS011;5477;48.806;9.154;2023-06-14T00:54:13;5.57;;;3.60;;
10847;SDS011;5477;48.806;9.154;2023-06-14T00:56:42;4.90;;;3.77;;
10847;SDS011;5477;48.806;9.154;2023-06-14T00:59:13;5.37;;;3.80;;
10847;SDS011;5477;48.806;9.154;2023-06-14T01:01:41;6.50;;;4.00;;
10847;SDS011;5477;48.806;9.154;2023-06-14T01:04:10;5.57;;;3.80;;
10847;SDS011;5477;48.806;9.154;2023-06-14T01:06:41;4.37;;;3.90;;
10847;SDS011;5477;48.806;9.154;2023-06-14T01:09:18;4.53;;;3.57;;
10847;SDS011;5477;48.806;9.154;2023-06-14T01:11:54;5.53;;;3.70;;
10847;SDS011;5477;48.806;9.154;2023-06-14T01:14:32;4.70;;;3.87;;
10847;SDS011;5477;48.806;9.154;2023-06-14T01:17:01;5.33;;;3.70;;
10847;SDS011;5477;48.806;9.154;2023-06-14T01:19:31;5.13;;;3.93;;
10847;SDS011;5477;48.806;9.154;2023-06-14T01:22:00;5.17;;;4.07;;
10847;SDS011;5477;48.806;9.154;2023-06-14T01:24:30;5.03;;;3.40;;
10847;SDS011;5477;48.806;9.154;2023-06-14T01:27:01;5.23;;;3.60;;
10847;SDS011;5477;48.806;9.154;2023-06-14T01:29:30;3.60;;;3.30;;
10847;SDS011;5477;48.806;9.154;2023-06-14T01:31:59;5.47;;;3.90;;
10847;SDS011;5477;48.806;9.154;2023-06-14T01:34:30;4.63;;;3.97;;
10847;SDS011;5477;48.806;9.154;2023-06-14T01:36:58;6.87;;;3.83;;
10847;SDS011;5477;48.806;9.154;2023-06-14T01:39:31;5.70;;;3.50;;
10847;SDS011;5477;48.806;9.154;2023-06-14T01:42:00;5.47;;;3.63;;
10847;SDS011;5477;48.806;9.154;2023-06-14T01:44:28;5.00;;;3.97;;
10847;SDS011;5477;48.806;9.154;2023-06-14T01:47:00;6.43;;;3.83;;
10847;SDS011;5477;48.806;9.154;2023-06-14T01:49:28;4.87;;;3.90;;
10847;SDS011;5477;48.806;9.154;2023-06-14T01:51:56;7.23;;;3.90;;
10847;SDS011;5477;48.806;9.154;2023-06-14T01:54:24;4.10;;;3.70;;
10847;SDS011;5477;48.806;9.154;2023-06-14T01:56:55;5.30;;;4.13;;
10847;SDS011;5477;48.806;9.154;2023-06-14T01:59:23;4.40;;;3.87;;
10847;SDS011;5477;48.806;9.154;2023-06-14T02:01:52;5.30;;;3.87;;
10847;SDS011;5477;48.806;9.154;2023-06-14T02:04:20;5.60;;;3.83;;
10847;SDS011;5477;48.806;9.154;2023-06-14T02:06:48;4.13;;;3.30;;
10847;SDS011;5477;48.806;9.154;2023-06-14T02:09:17;5.93;;;4.37;;
10847;SDS011;5477;48.806;9.154;2023-06-14T02:11:45;6.93;;;4.03;;
10847;SDS011;5477;48.806;9.154;2023-06-14T02:14:14;5.80;;;3.70;;
10847;SDS011;5477;48.806;9.154;2023-06-14T02:16:43;6.77;;;3.97;;
10847;SDS011;5477;48.806;9.154;2023-06-14T02:19:15;5.63;;;3.67;;
10847;SDS011;5477;48.806;9.154;2023-06-14T02:21:44;6.13;;;3.80;;
10847;SDS011;5477;48.806;9.154;2023-06-14T02:24:12;4.80;;;4.13;;
10847;SDS011;5477;48.806;9.154;2023-06-14T02:26:41;4.90;;;4.03;;
10847;SDS011;5477;48.806;9.154;2023-06-14T02:29:14;6.37;;;4.00;;
10847;SDS011;5477;48.806;9.154;2023-06-14T02:31:42;6.43;;;4.10;;
10847;SDS011;5477;48.806;9.154;2023-06-14T02:34:13;4.57;;;3.83;;
10847;SDS011;5477;48.806;9.154;2023-06-14T02:36:43;4.90;;;4.10;;
10847;SDS011;5477;48.806;9.154;2023-06-14T02:39:11;4.90;;;4.40;;
10847;SDS011;5477;48.806;9.154;2023-06-14T02:41:39;5.70;;;4.00;;
10847;SDS011;5477;48.806;9.154;2023-06-14T02:44:09;7.43;;;3.87;;
10847;SDS011;5477;48.806;9.154;2023-06-14T02:46:40;5.97;;;4.30;;
10847;SDS011;5477;48.806;9.154;2023-06-14T02:49:10;6.47;;;3.77;;
10847;SDS011;5477;48.806;9.154;2023-06-14T02:51:38;6.43;;;4.30;;
10847;SDS011;5477;48.806;9.154;2023-06-14T02:54:06;6.77;;;4.13;;
10847;SDS011;5477;48.806;9.154;2023-06-14T02:56:34;5.53;;;3.83;;
10847;SDS011;5477;48.806;9.154;2023-06-14T02:59:03;5.53;;;4.00;;
10847;SDS011;5477;48.806;9.154;2023-06-14T03:01:31;4.93;;;3.90;;
10847;SDS011;5477;48.806;9.154;2023-06-14T03:04:06;6.53;;;4.00;;
10847;SDS011;5477;48.806;9.154;2023-06-14T03:06:37;5.27;;;3.70;;
10847;SDS011;5477;48.806;9.154;2023-06-14T03:09:07;4.73;;;4.10;;
10847;SDS011;5477;48.806;9.154;2023-06-14T03:11:38;7.17;;;4.47;;
10847;SDS011;5477;48.806;9.154;2023-06-14T03:14:06;4.60;;;4.10;;
10847;SDS011;5477;48.806;9.154;2023-06-14T03:16:36;5.40;;;3.97;;
10847;SDS011;5477;48.806;9.154;2023-06-14T03:19:04;4.90;;;4.20;;
10847;SDS011;5477;48.806;9.154;2023-06-14T03:21:34;4.73;;;4.10;;
10847;SDS011;5477;48.806;9.154;2023-06-14T03:24:03;4.57;;;4.00;;
10847;SDS011;5477;48.806;9.154;2023-06-14T03:26:33;4.57;;;4.10;;
10847;SDS011;5477;48.806;9.154;2023-06-14T03:29:03;4.67;;;3.60;;
10847;SDS011;5477;48.806;9.154;2023-06-14T03:31:31;4.70;;;4.00;;
10847;SDS011;5477;48.806;9.154;2023-06-14T03:34:02;4.77;;;3.80;;
10847;SDS011;5477;48.806;9.154;2023-06-14T03:36:31;5.23;;;3.90;;
10847;SDS011;5477;48.806;9.154;2023-06-14T03:39:00;9.87;;;4.73;;
10847;SDS011;5477;48.806;9.154;2023-06-14T03:41:28;5.27;;;4.40;;
10847;SDS011;5477;48.806;9.154;2023-06-14T03:43:57;6.77;;;4.57;;
10847;SDS011;5477;48.806;9.154;2023-06-14T03:46:24;6.23;;;4.37;;
10847;SDS011;5477;48.806;9.154;2023-06-14T03:48:53;5.33;;;4.30;;
10847;SDS011;5477;48.806;9.154;2023-06-14T03:51:21;6.07;;;4.20;;
10847;SDS011;5477;48.806;9.154;2023-06-14T03:53:51;6.93;;;4.30;;
10847;SDS011;5477;48.806;9.154;2023-06-14T03:56:39;5.57;;;4.13;;
10847;SDS011;5477;48.806;9.154;2023-06-14T03:59:09;5.93;;;3.80;;
10847;SDS011;5477;48.806;9.154;2023-06-14T04:01:37;6.67;;;3.83;;
10847;SDS011;5477;48.806;9.154;2023-06-14T04:04:14;4.80;;;3.83;;
10847;SDS011;5477;48.806;9.154;2023-06-14T04:06:43;6.97;;;4.30;;
10847;SDS011;5477;48.806;9.154;2023-06-14T04:09:15;4.77;;;3.83;;
10847;SDS011;5477;48.806;9.154;2023-06-14T04:11:45;5.63;;;3.73;;
10847;SDS011;5477;48.806;9.154;2023-06-14T04:14:13;6.43;;;3.53;;
10847;SDS011;5477;48.806;9.154;2023-06-14T04:16:41;6.90;;;3.83;;
10847;SDS011;5477;48.806;9.154;2023-06-14T04:19:09;6.43;;;4.20;;
10847;SDS011;5477;48.806;9.154;2023-06-14T04:21:37;8.03;;;4.00;;
10847;SDS011;5477;48.806;9.154;2023-06-14T04:24:06;5.37;;;3.80;;
10847;SDS011;5477;48.806;9.154;2023-06-14T04:26:42;5.43;;;4.00;;
10847;SDS011;5477;48.806;9.154;2023-06-14T04:29:13;5.20;;;4.13;;
10847;SDS011;5477;48.806;9.154;2023-06-14T04:31:46;6.30;;;4.40;;
10847;SDS011;5477;48.806;9.154;2023-06-14T04:34:14;9.70;;;4.40;;
10847;SDS011;5477;48.806;9.154;2023-06-14T04:36:52;5.53;;;3.90;;
10847;SDS011;5477;48.806;9.154;2023-06-14T04:39:28;5.53;;;4.07;;
10847;SDS011;5477;48.806;9.154;2023-06-14T04:41:59;6.70;;;4.40;;
10847;SDS011;5477;48.806;9.154;2023-06-14T04:44:30;6.27;;;4.27;;
10847;SDS011;5477;48.806;9.154;2023-06-14T04:47:03;6.73;;;4.77;;
10847;SDS011;5477;48.806;9.154;2023-06-14T04:49:33;5.87;;;4.10;;
10847;SDS011;5477;48.806;9.154;2023-06-14T04:52:01;6.30;;;4.30;;
10847;SDS011;5477;48.806;9.154;2023-06-14T04:54:37;7.43;;;5.00;;
10847;SDS011;5477;48.806;9.154;2023-06-14T04:57:09;7.40;;;4.77;;
10847;SDS011;5477;48.806;9.154;2023-06-14T04:59:42;6.97;;;4.27;;
10847;SDS011;5477;48.806;9.154;2023-06-14T05:02:10;9.87;;;5.23;;
10847;SDS011;5477;48.806;9.154;2023-06-14T05:04:39;8.90;;;4.97;;
10847;SDS011;5477;48.806;9.154;2023-06-14T05:07:07;8.50;;;4.83;;
10847;SDS011;5477;48.806;9.154;2023-06-14T05:09:36;7.63;;;4.97;;
10847;SDS011;5477;48.806;9.154;2023-06-14T05:12:05;9.10;;;4.70;;
10847;SDS011;5477;48.806;9.154;2023-06-14T05:14:36;7.23;;;4.90;;
10847;SDS011;5477;48.806;9.154;2023-06-14T05:17:05;6.97;;;4.60;;
10847;SDS011;5477;48.806;9.154;2023-06-14T05:19:33;9.50;;;4.40;;
10847;SDS011;5477;48.806;9.154;2023-06-14T05:22:02;5.83;;;4.47;;
10847;SDS011;5477;48.806;9.154;2023-06-14T05:24:30;8.87;;;4.90;;
10847;SDS011;5477;48.806;9.154;2023-06-14T05:26:58;7.83;;;4.57;;
10847;SDS011;5477;48.806;9.154;2023-06-14T05:29:26;8.03;;;4.53;;
10847;SDS011;5477;48.806;9.154;2023-06-14T05:31:57;5.97;;;4.57;;
10847;SDS011;5477;48.806;9.154;2023-06-14T05:34:26;9.30;;;5.20;;
10847;SDS011;5477;48.806;9.154;2023-06-14T05:36:54;6.73;;;4.60;;
10847;SDS011;5477;48.806;9.154;2023-06-14T05:39:23;6.87;;;4.13;;
10847;SDS011;5477;48.806;9.154;2023-06-14T05:41:51;10.00;;;5.17;;
10847;SDS011;5477;48.806;9.154;2023-06-14T05:44:19;5.73;;;5.13;;
10847;SDS011;5477;48.806;9.154;2023-06-14T05:46:47;7.03;;;4.73;;
10847;SDS011;5477;48.806;9.154;2023-06-14T05:49:17;8.47;;;5.77;;
10847;SDS011;5477;48.806;9.154;2023-06-14T05:51:45;7.57;;;4.87;;
10847;SDS011;5477;48.806;9.154;2023-06-14T05:54:14;8.40;;;4.77;;
10847;SDS011;5477;48.806;9.154;2023-06-14T05:56:42;7.63;;;5.03;;
10847;SDS011;5477;48.806;9.154;2023-06-14T05:59:11;7.20;;;4.93;;
10847;SDS011;5477;48.806;9.154;2023-06-14T06:01:39;8.23;;;5.07;;
10847;SDS011;5477;48.806;9.154;2023-06-14T06:04:07;8.77;;;5.17;;
10847;SDS011;5477;48.806;9.154;2023-06-14T06:06:37;6.73;;;4.40;;
10847;SDS011;5477;48.806;9.154;2023-06-14T06:09:06;7.47;;;5.00;;
10847;SDS011;5477;48.806;9.154;2023-06-14T06:11:35;5.63;;;4.57;;
10847;SDS011;5477;48.806;9.154;2023-06-14T06:14:18;7.07;;;5.20;;
10847;SDS011;5477;48.806;9.154;2023-06-14T06:16:46;9.33;;;5.20;;
10847;SDS011;5477;48.806;9.154;2023-06-14T06:19:14;7.33;;;4.50;;
10847;SDS011;5477;48.806;9.154;2023-06-14T06:21:44;9.17;;;4.60;;
10847;SDS011;5477;48.806;9.154;2023-06-14T06:24:11;9.43;;;4.73;;
10847;SDS011;5477;48.806;9.154;2023-06-14T06:26:39;8.93;;;4.97;;
10847;SDS011;5477;48.806;9.154;2023-06-14T06:29:07;8.37;;;4.67;;
10847;SDS011;5477;48.806;9.154;2023-06-14T06:31:36;5.83;;;4.20;;
10847;SDS011;5477;48.806;9.154;2023-06-14T06:34:04;5.50;;;4.50;;
10847;SDS011;5477;48.806;9.154;2023-06-14T06:36:32;5.23;;;4.40;;
10847;SDS011;5477;48.806;9.154;2023-06-14T06:39:02;7.73;;;4.43;;
10847;SDS011;5477;48.806;9.154;2023-06-14T06:41:36;4.90;;;4.40;;
10847;SDS011;5477;48.806;9.154;2023-06-14T06:44:06;11.83;;;5.17;;
10847;SDS011;5477;48.806;9.154;2023-06-14T06:46:38;5.30;;;4.30;;
10847;SDS011;5477;48.806;9.154;2023-06-14T06:49:07;6.13;;;4.70;;
10847;SDS011;5477;48.806;9.154;2023-06-14T06:51:35;6.63;;;4.77;;
10847;SDS011;5477;48.806;9.154;2023-06-14T06:54:05;4.87;;;4.03;;
10847;SDS011;5477;48.806;9.154;2023-06-14T06:56:34;6.83;;;4.50;;
10847;SDS011;5477;48.806;9.154;2023-06-14T06:59:02;8.00;;;4.57;;
10847;SDS011;5477;48.806;9.154;2023-06-14T07:01:30;6.17;;;4.50;;
10847;SDS011;5477;48.806;9.154;2023-06-14T07:04:00;8.77;;;4.13;;
10847;SDS011;5477;48.806;9.154;2023-06-14T07:06:29;7.27;;;4.80;;
10847;SDS011;5477;48.806;9.154;2023-06-14T07:08:57;10.57;;;4.73;;
10847;SDS011;5477;48.806;9.154;2023-06-14T07:11:29;6.03;;;4.50;;
10847;SDS011;5477;48.806;9.154;2023-06-14T07:13:57;10.07;;;4.30;;
10847;SDS011;5477;48.806;9.154;2023-06-14T07:16:25;5.77;;;4.20;;
10847;SDS011;5477;48.806;9.154;2023-06-14T07:18:53;6.70;;;4.07;;
10847;SDS011;5477;48.806;9.154;2023-06-14T07:21:21;6.47;;;4.60;;
10847;SDS011;5477;48.806;9.154;2023-06-14T07:23:49;6.53;;;4.40;;
10847;SDS011;5477;48.806;9.154;2023-06-14T07:26:17;6.10;;;4.30;;
10847;SDS011;5477;48.806;9.154;2023-06-14T07:28:47;6.10;;;4.73;;
10847;SDS011;5477;48.806;9.154;2023-06-14T07:31:15;4.70;;;4.13;;
10847;SDS011;5477;48.806;9.154;2023-06-14T07:33:45;6.50;;;4.20;;
10847;SDS011;5477;48.806;9.154;2023-06-14T07:36:13;6.47;;;4.00;;
10847;SDS011;5477;48.806;9.154;2023-06-14T07:38:41;6.70;;;4.57;;
10847;SDS011;5477;48.806;9.154;2023-06-14T07:41:09;9.30;;;4.47;;
10847;SDS011;5477;48.806;9.154;2023-06-14T07:43:37;5.10;;;3.93;;
10847;SDS011;5477;48.806;9.154;2023-06-14T07:46:07;5.03;;;4.37;;
10847;SDS011;5477;48.806;9.154;2023-06-14T07:48:36;7.93;;;4.20;;
10847;SDS011;5477;48.806;9.154;2023-06-14T07:51:04;6.87;;;4.17;;
10847;SDS011;5477;48.806;9.154;2023-06-14T07:53:32;5.27;;;4.50;;
10847;SDS011;5477;48.806;9.154;2023-06-14T07:56:00;6.70;;;4.57;;
10847;SDS011;5477;48.806;9.154;2023-06-14T07:58:29;6.03;;;4.37;;
10847;SDS011;5477;48.806;9.154;2023-06-14T08:00:57;8.37;;;4.33;;
10847;SDS011;5477;48.806;9.154;2023-06-14T08:03:27;5.23;;;4.33;;
10847;SDS011;5477;48.806;9.154;2023-06-14T08:05:56;8.20;;;4.53;;
10847;SDS011;5477;48.806;9.154;2023-06-14T08:08:24;7.80;;;4.67;;
10847;SDS011;5477;48.806;9.154;2023-06-14T08:10:52;4.60;;;4.20;;
10847;SDS011;5477;48.806;9.154;2023-06-14T08:13:21;5.77;;;4.63;;
10847;SDS011;5477;48.806;9.154;2023-06-14T08:15:49;9.50;;;4.40;;
10847;SDS011;5477;48.806;9.154;2023-06-14T08:18:17;9.67;;;4.33;;
10847;SDS011;5477;48.806;9.154;2023-06-14T08:20:46;9.90;;;5.93;;
10847;SDS011;5477;48.806;9.154;2023-06-14T08:23:14;9.60;;;4.57;;
10847;SDS011;5477;48.806;9.154;2023-06-14T08:25:45;8.80;;;6.13;;
10847;SDS011;5477;48.806;9.154;2023-06-14T08:28:13;5.10;;;4.43;;
10847;SDS011;5477;48.806;9.154;2023-06-14T08:30:42;7.67;;;4.60;;
10847;SDS011;5477;48.806;9.154;2023-06-14T08:33:10;5.13;;;4.30;;
10847;SDS011;5477;48.806;9.154;2023-06-14T08:35:43;9.70;;;4.90;;
10847;SDS011;5477;48.806;9.154;2023-06-14T08:38:12;13.23;;;4.93;;
10847;SDS011;5477;48.806;9.154;2023-06-14T08:40:41;9.33;;;4.43;;
10847;SDS011;5477;48.806;9.154;2023-06-14T08:43:10;6.63;;;4.27;;
10847;SDS011;5477;48.806;9.154;2023-06-14T08:45:38;9.97;;;4.47;;
10847;SDS011;5477;48.806;9.154;2023-06-14T08:48:07;5.30;;;3.90;;
10847;SDS011;5477;48.806;9.154;2023-06-14T08:50:35;6.17;;;4.20;;
10847;SDS011;5477;48.806;9.154;2023-06-14T08:53:08;7.53;;;4.20;;
10847;SDS011;5477;48.806;9.154;2023-06-14T08:55:46;7.00;;;4.23;;
10847;SDS011;5477;48.806;9.154;2023-06-14T08:58:15;9.90;;;4.23;;
10847;SDS011;5477;48.806;9.154;2023-06-14T09:00:43;7.40;;;4.13;;
10847;SDS011;5477;48.806;9.154;2023-06-14T09:03:13;12.80;;;5.60;;
10847;SDS011;5477;48.806;9.154;2023-06-14T09:05:41;7.63;;;4.47;;
10847;SDS011;5477;48.806;9.154;2023-06-14T09:08:10;8.77;;;4.70;;
10847;SDS011;5477;48.806;9.154;2023-06-14T09:10:40;4.87;;;4.07;;
10847;SDS011;5477;48.806;9.154;2023-06-14T09:13:08;7.50;;;4.00;;
10847;SDS011;5477;48.806;9.154;2023-06-14T09:15:36;6.47;;;4.40;;
10847;SDS011;5477;48.806;9.154;2023-06-14T09:18:04;8.33;;;4.30;;
10847;SDS011;5477;48.806;9.154;2023-06-14T09:20:33;11.33;;;4.43;;
10847;SDS011;5477;48.806;9.154;2023-06-14T09:23:01;7.40;;;4.33;;
10847;SDS011;5477;48.806;9.154;2023-06-14T09:25:32;8.00;;;5.00;;
10847;SDS011;5477;48.806;9.154;2023-06-14T09:28:09;6.90;;;4.67;;
10847;SDS011;5477;48.806;9.154;2023-06-14T09:30:38;5.70;;;4.73;;
10847;SDS011;5477;48.806;9.154;2023-06-14T09:33:06;5.87;;;4.00;;
10847;SDS011;5477;48.806;9.154;2023-06-14T09:35:35;6.27;;;4.03;;
10847;SDS011;5477;48.806;9.154;2023-06-14T09:38:03;5.30;;;4.50;;
10847;SDS011;5477;48.806;9.154;2023-06-14T09:40:33;6.30;;;4.40;;
10847;SDS011;5477;48.806;9.154;2023-06-14T09:43:04;5.63;;;4.20;;
10847;SDS011;5477;48.806;9.154;2023-06-14T09:45:36;8.00;;;4.47;;
10847;SDS011;5477;48.806;9.154;2023-06-14T09:48:06;6.37;;;4.17;;
10847;SDS011;5477;48.806;9.154;2023-06-14T09:50:35;10.10;;;4.43;;
10847;SDS011;5477;48.806;9.154;2023-06-14T09:53:03;7.63;;;4.50;;
10847;SDS011;5477;48.806;9.154;2023-06-14T09:55:34;7.70;;;4.10;;
10847;SDS011;5477;48.806;9.154;2023-06-14T09:58:05;6.37;;;4.00;;
10847;SDS011;5477;48.806;9.154;2023-06-14T10:00:35;6.87;;;4.73;;
10847;SDS011;5477;48.806;9.154;2023-06-14T10:03:11;8.80;;;4.00;;
10847;SDS011;5477;48.806;9.154;2023-06-14T10:05:41;6.07;;;4.33;;
10847;SDS011;5477;48.806;9.154;2023-06-14T10:08:13;8.60;;;4.03;;
10847;SDS011;5477;48.806;9.154;2023-06-14T10:10:43;5.25;;;3.65;;
10847;SDS011;5477;48.806;9.154;2023-06-14T10:13:11;5.35;;;3.53;;
10847;SDS011;5477;48.806;9.154;2023-06-14T10:15:44;4.32;;;3.08;;
10847;SDS011;5477;48.806;9.154;2023-06-14T10:18:22;7.57;;;3.60;;
10847;SDS011;5477;48.806;9.154;2023-06-14T10:20:58;7.27;;;3.70;;
10847;SDS011;5477;48.806;9.154;2023-06-14T10:23:35;5.43;;;4.10;;
10847;SDS011;5477;48.806;9.154;2023-06-14T10:26:08;7.50;;;3.85;;
10847;SDS011;5477;48.806;9.154;2023-06-14T10:28:37;4.93;;;4.05;;
10847;SDS011;5477;48.806;9.154;2023-06-14T10:31:07;5.50;;;3.85;;
10847;SDS011;5477;48.806;9.154;2023-06-14T10:33:36;7.30;;;3.88;;
10847;SDS011;5477;48.806;9.154;2023-06-14T10:36:25;7.55;;;3.92;;
10847;SDS011;5477;48.806;9.154;2023-06-14T10:38:57;7.57;;;3.90;;
10847;SDS011;5477;48.806;9.154;2023-06-14T10:41:27;6.57;;;3.80;;
10847;SDS011;5477;48.806;9.154;2023-06-14T10:46:55;6.78;;;3.80;;
10847;SDS011;5477;48.806;9.154;2023-06-14T10:49:36;4.88;;;3.67;;
10847;SDS011;5477;48.806;9.154;2023-06-14T10:52:09;5.53;;;4.13;;
10847;SDS011;5477;48.806;9.154;2023-06-14T10:57:46;5.53;;;3.42;;
10847;SDS011;5477;48.806;9.154;2023-06-14T11:00:20;5.65;;;3.38;;
10847;SDS011;5477;48.806;9.154;2023-06-14T11:05:59;4.35;;;3.20;;
10847;SDS011;5477;48.806;9.154;2023-06-14T11:11:38;7.78;;;3.60;;
10847;SDS011;5477;48.806;9.154;2023-06-14T11:14:09;5.55;;;3.92;;
10847;SDS011;5477;48.806;9.154;2023-06-14T11:16:38;6.38;;;3.95;;
10847;SDS011;5477;48.806;9.154;2023-06-14T11:19:08;7.47;;;3.60;;
10847;SDS011;5477;48.806;9.154;2023-06-14T11:21:39;5.03;;;3.25;;
10847;SDS011;5477;48.806;9.154;2023-06-14T11:24:09;8.27;;;3.50;;
10847;SDS011;5477;48.806;9.154;2023-06-14T11:26:38;7.18;;;3.38;;
10847;SDS011;5477;48.806;9.154;2023-06-14T11:29:07;4.30;;;3.30;;
10847;SDS011;5477;48.806;9.154;2023-06-14T11:31:35;4.00;;;3.42;;
10847;SDS011;5477;48.806;9.154;2023-06-14T11:34:04;5.68;;;3.25;;
10847;SDS011;5477;48.806;9.154;2023-06-14T11:36:34;4.03;;;3.30;;
10847;SDS011;5477;48.806;9.154;2023-06-14T11:39:03;4.10;;;3.63;;
10847;SDS011;5477;48.806;9.154;2023-06-14T11:41:34;3.70;;;3.03;;
10847;SDS011;5477;48.806;9.154;2023-06-14T11:44:05;5.65;;;3.30;;
10847;SDS011;5477;48.806;9.154;2023-06-14T11:46:34;7.38;;;3.83;;
10847;SDS011;5477;48.806;9.154;2023-06-14T11:49:02;5.18;;;3.22;;
10847;SDS011;5477;48.806;9.154;2023-06-14T11:51:34;11.95;;;3.33;;
10847;SDS011;5477;48.806;9.154;2023-06-14T11:54:03;5.30;;;3.47;;
10847;SDS011;5477;48.806;9.154;2023-06-14T11:56:32;4.82;;;3.28;;
10847;SDS011;5477;48.806;9.154;2023-06-14T11:59:02;6.07;;;3.63;;
10847;SDS011;5477;48.806;9.154;2023-06-14T12:01:35;5.00;;;3.65;;
10847;SDS011;5477;48.806;9.154;2023-06-14T12:04:06;4.82;;;3.40;;
10847;SDS011;5477;48.806;9.154;2023-06-14T12:06:35;5.18;;;3.17;;
10847;SDS011;5477;48.806;9.154;2023-06-14T12:09:06;5.18;;;3.17;;
10847;SDS011;5477;48.806;9.154;2023-06-14T12:11:40;4.28;;;3.33;;
10847;SDS011;5477;48.806;9.154;2023-06-14T12:14:08;4.35;;;3.38;;
10847;SDS011;5477;48.806;9.154;2023-06-14T12:16:37;4.15;;;3.00;;
10847;SDS011;5477;48.806;9.154;2023-06-14T12:19:12;4.68;;;3.08;;
10847;SDS011;5477;48.806;9.154;2023-06-14T12:21:42;4.43;;;3.10;;
10847;SDS011;5477;48.806;9.154;2023-06-14T12:24:14;4.45;;;3.13;;
10847;SDS011;5477;48.806;9.154;2023-06-14T12:26:42;5.38;;;3.38;;
10847;SDS011;5477;48.806;9.154;2023-06-14T12:29:11;6.50;;;3.40;;
10847;SDS011;5477;48.806;9.154;2023-06-14T12:31:40;4.30;;;2.72;;
10847;SDS011;5477;48.806;9.154;2023-06-14T12:34:09;3.60;;;3.20;;
10847;SDS011;5477;48.806;9.154;2023-06-14T12:36:37;5.88;;;3.50;;
10847;SDS011;5477;48.806;9.154;2023-06-14T12:39:11;10.98;;;3.35;;
10847;SDS011;5477;48.806;9.154;2023-06-14T12:41:40;4.10;;;3.00;;
10847;SDS011;5477;48.806;9.154;2023-06-14T12:44:09;4.47;;;3.08;;
10847;SDS011;5477;48.806;9.154;2023-06-14T12:46:37;6.53;;;3.20;;
10847;SDS011;5477;48.806;9.154;2023-06-14T12:49:08;7.75;;;3.25;;
10847;SDS011;5477;48.806;9.154;2023-06-14T12:51:36;7.47;;;5.63;;
10847;SDS011;5477;48.806;9.154;2023-06-14T12:54:05;4.43;;;3.05;;
10847;SDS011;5477;48.806;9.154;2023-06-14T12:56:35;5.00;;;3.28;;
10847;SDS011;5477;48.806;9.154;2023-06-14T12:59:03;9.23;;;3.42;;
10847;SDS011;5477;48.806;9.154;2023-06-14T13:01:32;5.68;;;3.15;;
10847;SDS011;5477;48.806;9.154;2023-06-14T13:04:00;5.72;;;3.38;;
10847;SDS011;5477;48.806;9.154;2023-06-14T13:06:29;4.60;;;3.42;;
10847;SDS011;5477;48.806;9.154;2023-06-14T13:08:57;4.65;;;3.10;;
10847;SDS011;5477;48.806;9.154;2023-06-14T13:11:25;6.75;;;4.25;;
10847;SDS011;5477;48.806;9.154;2023-06-14T13:13:55;7.30;;;3.20;;
10847;SDS011;5477;48.806;9.154;2023-06-14T13:16:23;5.53;;;3.17;;
10847;SDS011;5477;48.806;9.154;2023-06-14T13:18:52;3.85;;;2.95;;
10847;SDS011;5477;48.806;9.154;2023-06-14T13:21:19;3.42;;;2.78;;
10847;SDS011;5477;48.806;9.154;2023-06-14T13:23:47;7.28;;;3.05;;
10847;SDS011;5477;48.806;9.154;2023-06-14T13:26:16;5.20;;;2.88;;
10847;SDS011;5477;48.806;9.154;2023-06-14T13:28:44;4.00;;;2.90;;
10847;SDS011;5477;48.806;9.154;2023-06-14T13:31:14;5.35;;;2.95;;
10847;SDS011;5477;48.806;9.154;2023-06-14T13:33:42;3.65;;;2.78;;
10847;SDS011;5477;48.806;9.154;2023-06-14T13:36:09;4.22;;;2.90;;
10847;SDS011;5477;48.806;9.154;2023-06-14T13:38:37;7.57;;;3.25;;
10847;SDS011;5477;48.806;9.154;2023-06-14T13:41:05;3.40;;;2.70;;
10847;SDS011;5477;48.806;9.154;2023-06-14T13:43:33;3.65;;;2.95;;
10847;SDS011;5477;48.806;9.154;2023-06-14T13:46:01;2.97;;;2.72;;
10847;SDS011;5477;48.806;9.154;2023-06-14T13:48:31;3.88;;;3.25;;
10847;SDS011;5477;48.806;9.154;2023-06-14T13:50:59;4.07;;;3.03;;
10847;SDS011;5477;48.806;9.154;2023-06-14T13:53:27;5.22;;;3.00;;
10847;SDS011;5477;48.806;9.154;2023-06-14T13:55:55;3.58;;;2.67;;
10847;SDS011;5477;48.806;9.154;2023-06-14T13:58:23;3.95;;;2.97;;
10847;SDS011;5477;48.806;9.154;2023-06-14T14:00:51;3.13;;;2.83;;
10847;SDS011;5477;48.806;9.154;2023-06-14T14:03:20;3.67;;;2.65;;
10847;SDS011;5477;48.806;9.154;2023-06-14T14:05:50;4.00;;;2.85;;
10847;SDS011;5477;48.806;9.154;2023-06-14T14:08:18;4.03;;;2.70;;
10847;SDS011;5477;48.806;9.154;2023-06-14T14:10:46;4.80;;;3.42;;
10847;SDS011;5477;48.806;9.154;2023-06-14T14:13:14;5.40;;;2.92;;
10847;SDS011;5477;48.806;9.154;2023-06-14T14:15:42;8.30;;;3.53;;
10847;SDS011;5477;48.806;9.154;2023-06-14T14:18:10;8.85;;;3.10;;
10847;SDS011;5477;48.806;9.154;2023-06-14T14:20:38;3.60;;;3.30;;
10847;SDS011;5477;48.806;9.154;2023-06-14T14:23:07;3.88;;;3.15;;
10847;SDS011;5477;48.806;9.154;2023-06-14T14:25:35;4.85;;;3.25;;
10847;SDS011;5477;48.806;9.154;2023-06-14T14:28:03;6.28;;;3.33;;
10847;SDS011;5477;48.806;9.154;2023-06-14T14:30:31;4.45;;;3.40;;
10847;SDS011;5477;48.806;9.154;2023-06-14T14:33:00;5.40;;;3.72;;
10847;SDS011;5477;48.806;9.154;2023-06-14T14:35:28;5.90;;;3.08;;
10847;SDS011;5477;48.806;9.154;2023-06-14T14:37:57;4.55;;;3.42;;
10847;SDS011;5477;48.806;9.154;2023-06-14T14:40:26;5.47;;;3.55;;
10847;SDS011;5477;48.806;9.154;2023-06-14T14:42:54;3.80;;;3.08;;
10847;SDS011;5477;48.806;9.154;2023-06-14T14:45:22;4.50;;;3.10;;
10847;SDS011;5477;48.806;9.154;2023-06-14T14:47:50;5.93;;;3.65;;
10847;SDS011;5477;48.806;9.154;2023-06-14T14:50:21;4.05;;;3.40;;
10847;SDS011;5477;48.806;9.154;2023-06-14T14:52:49;4.60;;;3.20;;
10847;SDS011;5477;48.806;9.154;2023-06-14T14:55:17;5.10;;;3.35;;
10847;SDS011;5477;48.806;9.154;2023-06-14T14:57:47;4.55;;;3.25;;
10847;SDS011;5477;48.806;9.154;2023-06-14T15:00:15;3.80;;;3.40;;
10847;SDS011;5477;48.806;9.154;2023-06-14T15:02:44;5.00;;;3.38;;
10847;SDS011;5477;48.806;9.154;2023-06-14T15:05:12;5.70;;;3.38;;
10847;SDS011;5477;48.806;9.154;2023-06-14T15:07:40;5.03;;;3.20;;
10847;SDS011;5477;48.806;9.154;2023-06-14T15:10:08;4.22;;;3.05;;
10847;SDS011;5477;48.806;9.154;2023-06-14T15:12:36;5.22;;;3.95;;
10847;SDS011;5477;48.806;9.154;2023-06-14T15:15:06;5.05;;;3.28;;
10847;SDS011;5477;48.806;9.154;2023-06-14T15:17:35;6.25;;;3.95;;
10847;SDS011;5477;48.806;9.154;2023-06-14T15:20:04;4.30;;;3.42;;
10847;SDS011;5477;48.806;9.154;2023-06-14T15:22:33;7.15;;;3.22;;
10847;SDS011;5477;48.806;9.154;2023-06-14T15:25:01;5.97;;;3.38;;
10847;SDS011;5477;48.806;9.154;2023-06-14T15:27:29;4.97;;;3.08;;